Time;durP1;ratioP1;P1;durP2;ratioP2;P2;SDS_P1;SDS_P2;PMS_P1;PMS_P2;Temp;Humidity;BMP_temperature;BMP_pressure;BME280_temperature;BME280_humidity;BME280_pressure;Samples;Min_cycle;Max_cycle;Signal;HPM_P1;HPM_P2
2022/07/25 00:00:26;;;;;;;10.60;7.20;;;;;;;21.66;85.63;100163.53;8391310;28;20040;-52
2022/07/25 00:04:26;;;;;;;8.67;7.57;;;;;;;21.62;85.34;100150.44;8389424;28;20037;-51
2022/07/25 00:08:27;;;;;;;10.18;7.65;;;;;;;21.59;84.56;100140.69;8390633;28;20782;-54
2022/07/25 00:12:27;;;;;;;10.30;7.90;;;;;;;21.55;84.51;100133.09;8383442;28;20041;-55
2022/07/25 00:16:27;;;;;;;8.75;6.85;;;;;;;21.55;84.14;100133.94;8389005;28;20037;-52
2022/07/25 00:20:28;;;;;;;10.00;8.00;;;;;;;21.44;84.66;100131.91;8389380;28;20040;-55
2022/07/25 00:24:28;;;;;;;9.00;7.55;;;;;;;21.48;84.30;100124.91;8396414;28;20267;-54
2022/07/25 00:28:29;;;;;;;10.32;7.78;;;;;;;21.50;83.76;100124.69;8403311;28;20476;-52
2022/07/25 00:32:29;;;;;;;8.77;7.50;;;;;;;21.42;84.16;100117.53;8428374;28;20047;-54
2022/07/25 00:36:30;;;;;;;11.02;7.43;;;;;;;21.37;83.98;100109.09;8427143;28;20119;-53
2022/07/25 00:40:30;;;;;;;12.73;8.15;;;;;;;21.33;84.04;100103.19;8428531;28;20131;-54
2022/07/25 00:44:32;;;;;;;12.05;8.20;;;;;;;21.31;83.79;100104.47;8427728;28;20059;-51
2022/07/25 00:48:33;;;;;;;12.13;8.13;;;;;;;21.21;84.14;100106.84;8423104;28;20076;-51
2022/07/25 00:52:34;;;;;;;9.77;7.80;;;;;;;21.13;84.39;100107.09;8394817;28;20044;-54
2022/07/25 00:56:34;;;;;;;9.30;8.35;;;;;;;21.12;84.51;100105.41;8389324;28;20271;-51
2022/07/25 01:00:35;;;;;;;10.18;7.93;;;;;;;21.05;84.58;100099.09;8406969;28;20120;-54
2022/07/25 01:04:35;;;;;;;9.98;7.70;;;;;;;21.01;84.97;100103.31;8391309;28;20457;-52
2022/07/25 01:08:36;;;;;;;10.68;7.68;;;;;;;20.86;86.43;100094.50;8392773;28;20528;-55
2022/07/25 01:12:46;;;;;;;11.50;8.77;;;;;;;20.78;86.84;100090.09;8394716;28;20060;-52
2022/07/25 01:16:47;;;;;;;13.75;8.73;;;;;;;20.78;86.86;100090.09;8394781;28;20128;-53
2022/07/25 01:20:47;;;;;;;15.30;8.82;;;;;;;20.55;88.05;100086.13;8389921;28;20041;-54
2022/07/25 01:24:48;;;;;;;11.82;9.10;;;;;;;20.43;88.88;100098.84;8392676;28;20561;-51
2022/07/25 01:28:48;;;;;;;12.47;8.40;;;;;;;20.45;88.64;100096.72;8408692;28;20039;-54
2022/07/25 01:32:49;;;;;;;12.05;8.75;;;;;;;20.41;89.04;100079.84;8426932;28;20630;-53
2022/07/25 01:36:50;;;;;;;13.18;9.57;;;;;;;20.22;89.65;100079.88;8387967;28;20032;-53
2022/07/25 01:40:50;;;;;;;11.17;8.73;;;;;;;20.21;89.32;100072.66;8394630;28;20119;-51
2022/07/25 01:44:51;;;;;;;12.25;9.52;;;;;;;20.33;88.28;100059.97;8393567;28;20764;-52
2022/07/25 01:48:51;;;;;;;11.30;9.35;;;;;;;20.32;88.02;100064.66;8394381;28;20090;-54
2022/07/25 01:52:51;;;;;;;11.00;9.73;;;;;;;20.37;87.88;100066.75;8388465;28;20044;-53
2022/07/25 01:56:52;;;;;;;12.73;8.43;;;;;;;20.37;87.83;100066.75;8393775;28;20148;-52
2022/07/25 02:00:52;;;;;;;11.77;9.10;;;;;;;20.22;88.21;100057.91;8421289;28;20083;-53
2022/07/25 02:04:53;;;;;;;12.63;8.65;;;;;;;20.20;88.84;100060.88;8425443;28;20282;-50
2022/07/25 02:08:53;;;;;;;13.32;9.38;;;;;;;20.16;89.08;100056.84;8425967;28;20487;-54
2022/07/25 02:12:54;;;;;;;11.57;8.85;;;;;;;20.14;88.80;100045.25;8424832;28;20035;-54
2022/07/25 02:16:54;;;;;;;14.07;8.30;;;;;;;20.20;88.40;100049.03;8393186;28;20036;-51
2022/07/25 02:20:54;;;;;;;11.02;8.65;;;;;;;20.20;88.16;100038.06;8390558;28;20382;-51
2022/07/25 02:24:55;;;;;;;12.15;9.18;;;;;;;20.19;87.32;100041.88;8392325;28;20127;-55
2022/07/25 02:28:55;;;;;;;11.80;9.27;;;;;;;20.13;88.36;100037.22;8399749;28;20399;-53
2022/07/25 02:32:55;;;;;;;12.23;8.60;;;;;;;20.16;87.83;100023.91;8402642;28;20275;-54
2022/07/25 02:36:56;;;;;;;9.95;8.80;;;;;;;20.28;86.72;100024.94;8390720;28;20036;-53
2022/07/25 02:40:56;;;;;;;9.57;7.95;;;;;;;20.33;86.62;100032.53;8387373;28;20047;-52
2022/07/25 02:44:57;;;;;;;10.93;7.90;;;;;;;20.28;86.46;100018.63;8391896;28;20029;-51
2022/07/25 02:48:57;;;;;;;10.13;8.53;;;;;;;20.36;85.78;100021.97;8392029;28;20516;-53
2022/07/25 02:52:58;;;;;;;12.05;8.52;;;;;;;20.32;86.14;100014.38;8391401;28;20273;-51
2022/07/25 02:56:58;;;;;;;9.65;8.50;;;;;;;20.12;87.15;100008.91;8391877;28;20048;-53
2022/07/25 03:00:59;;;;;;;10.10;8.23;;;;;;;20.09;87.38;100000.22;8420426;28;20035;-50
2022/07/25 03:04:59;;;;;;;13.65;9.27;;;;;;;19.96;87.78;99992.88;8423274;28;20790;-51
2022/07/25 03:08:59;;;;;;;12.52;8.68;;;;;;;20.02;87.68;99996.66;8423701;28;20031;-49
2022/07/25 03:13:00;;;;;;;9.45;8.13;;;;;;;20.08;87.10;99993.06;8422747;28;20028;-51
2022/07/25 03:17:00;;;;;;;10.30;8.48;;;;;;;20.13;86.45;99983.16;8391638;28;20060;-51
2022/07/25 03:21:00;;;;;;;10.32;8.35;;;;;;;20.16;86.04;99981.91;8390972;28;20062;-52
2022/07/25 03:25:01;;;;;;;11.20;8.33;;;;;;;20.13;86.26;99972.16;8391696;28;20115;-54
2022/07/25 03:29:03;;;;;;;15.38;9.25;;;;;;;20.08;86.29;99973.84;8401371;28;20282;-54
2022/07/25 03:33:03;;;;;;;11.57;8.55;;;;;;;20.07;86.38;99969.44;8387062;28;20492;-55
2022/07/25 03:37:04;;;;;;;9.30;8.10;;;;;;;20.03;86.58;99965.44;8390007;28;20551;-51
2022/07/25 03:41:05;;;;;;;9.35;8.30;;;;;;;20.00;86.66;99960.38;8391930;28;20282;-52
2022/07/25 03:45:06;;;;;;;13.27;9.05;;;;;;;20.00;86.79;99965.88;8391518;28;20488;-53
2022/07/25 03:49:06;;;;;;;11.05;8.50;;;;;;;19.97;86.53;99955.31;8390768;28;20060;-53
2022/07/25 03:53:06;;;;;;;11.07;8.60;;;;;;;20.03;86.33;99962.69;8391328;28;20086;-51
2022/07/25 03:57:07;;;;;;;10.82;8.55;;;;;;;20.08;85.88;99951.91;8391353;28;20274;-53
2022/07/25 04:01:07;;;;;;;13.52;8.70;;;;;;;20.09;85.71;99948.94;8420880;28;20028;-50
2022/07/25 04:05:08;;;;;;;11.80;8.73;;;;;;;20.15;85.49;99947.25;8425429;28;20048;-53
2022/07/25 04:09:09;;;;;;;11.70;9.10;;;;;;;20.14;85.39;99940.94;8429535;28;20277;-51
2022/07/25 04:13:10;;;;;;;13.07;8.75;;;;;;;20.16;85.26;99938.81;8427068;28;20473;-51
2022/07/25 04:17:10;;;;;;;14.05;8.27;;;;;;;20.22;85.15;99937.13;8396323;28;20029;-53
2022/07/25 04:21:11;;;;;;;10.30;7.90;;;;;;;20.27;84.89;99931.78;8385525;28;20176;-51
2022/07/25 04:25:11;;;;;;;8.48;7.18;;;;;;;20.43;84.19;99929.41;8396290;28;20032;-55
2022/07/25 04:29:11;;;;;;;10.70;7.82;;;;;;;20.58;83.51;99940.09;8407726;28;20036;-52
2022/07/25 04:33:13;;;;;;;11.77;7.95;;;;;;;20.71;83.39;99931.81;8428922;28;20032;-53
2022/07/25 04:37:13;;;;;;;8.93;7.47;;;;;;;20.88;82.76;99927.47;8426700;28;20110;-51
2022/07/25 04:41:14;;;;;;;8.80;7.33;;;;;;;21.01;82.73;99916.41;8389297;28;20093;-52
2022/07/25 04:45:14;;;;;;;8.85;7.32;;;;;;;21.16;82.12;99908.69;8409781;28;20353;-51
2022/07/25 04:49:14;;;;;;;10.13;7.37;;;;;;;21.30;81.34;99915.78;8417034;28;20028;-52
2022/07/25 04:53:15;;;;;;;11.98;8.10;;;;;;;21.48;80.86;99912.22;8427840;28;20266;-54
2022/07/25 04:57:15;;;;;;;13.90;8.02;;;;;;;21.57;80.61;99906.22;8425935;28;20028;-51
2022/07/25 05:01:15;;;;;;;8.52;7.63;;;;;;;21.82;79.71;99904.31;8424806;28;20035;-54
2022/07/25 05:05:16;;;;;;;8.35;7.32;;;;;;;22.03;79.33;99906.63;8425391;28;20044;-51
2022/07/25 05:09:17;;;;;;;10.13;7.15;;;;;;;22.21;78.38;99901.09;8426956;28;20124;-54
2022/07/25 05:13:17;;;;;;;8.07;7.25;;;;;;;22.29;78.20;99895.25;8389165;28;20048;-53
2022/07/25 05:17:18;;;;;;;9.38;7.35;;;;;;;22.28;79.00;99893.59;8394776;28;20036;-54
2022/07/25 05:21:18;;;;;;;10.47;7.33;;;;;;;22.36;78.58;99892.44;8415125;28;20062;-50
2022/07/25 05:25:19;;;;;;;10.17;7.17;;;;;;;22.52;77.62;99887.16;8403312;28;20271;-51
2022/07/25 05:29:19;;;;;;;12.52;7.13;;;;;;;22.60;77.49;99891.50;8410296;28;20286;-51
2022/07/25 05:33:19;;;;;;;11.13;7.60;;;;;;;22.57;77.49;99881.78;8394316;28;20106;-50
2022/07/25 05:37:20;;;;;;;10.50;6.80;;;;;;;22.58;78.04;99874.34;8394324;28;20040;-52
2022/07/25 05:41:20;;;;;;;7.38;6.68;;;;;;;22.63;78.50;99874.50;8385761;28;20348;-50
2022/07/25 05:45:21;;;;;;;7.85;7.03;;;;;;;22.88;77.48;99881.53;8418392;28;20040;-50
2022/07/25 05:49:21;;;;;;;11.02;7.30;;;;;;;23.21;76.28;99881.03;8411145;28;20049;-53
2022/07/25 05:53:22;;;;;;;10.90;7.45;;;;;;;23.38;76.08;99864.59;8390723;28;20419;-53
2022/07/25 05:57:22;;;;;;;11.90;7.53;;;;;;;23.48;75.91;99867.63;8391941;28;20042;-53
2022/07/25 06:01:23;;;;;;;11.85;6.60;;;;;;;23.82;75.26;99859.31;8393450;28;20045;-53
2022/07/25 06:05:24;;;;;;;8.48;6.28;;;;;;;24.35;74.19;99870.16;8387984;28;20041;-53
2022/07/25 06:09:25;;;;;;;9.70;6.22;;;;;;;24.86;73.18;99859.03;8386203;28;20068;-51
2022/07/25 06:13:26;;;;;;;7.43;5.93;;;;;;;25.21;71.46;99856.88;8392937;28;20044;-54
2022/07/25 06:17:26;;;;;;;7.07;6.30;;;;;;;25.57;70.80;99861.09;8393015;28;20537;-53
2022/07/25 06:21:27;;;;;;;7.95;5.40;;;;;;;26.02;69.52;99868.19;8393086;28;20542;-50
2022/07/25 06:25:27;;;;;;;11.52;6.35;;;;;;;26.36;69.27;99866.97;8383641;28;20411;-53
2022/07/25 06:29:28;;;;;;;10.63;6.50;;;;;;;26.62;67.80;99873.63;8397240;28;20040;-52
2022/07/25 06:33:28;;;;;;;8.05;5.95;;;;;;;26.72;66.74;99869.03;8392136;28;20115;-51
2022/07/25 06:37:28;;;;;;;13.37;6.13;;;;;;;26.86;68.70;99868.66;8383904;28;20374;-53
2022/07/25 06:41:29;;;;;;;7.25;5.35;;;;;;;27.35;62.66;99856.38;8391379;28;20302;-55
2022/07/25 06:45:29;;;;;;;6.50;5.80;;;;;;;27.73;60.15;99858.84;8391977;28;20499;-54
2022/07/25 06:49:30;;;;;;;9.70;5.38;;;;;;;27.87;59.27;99868.44;8381525;28;20267;-52
2022/07/25 06:53:30;;;;;;;7.07;5.50;;;;;;;27.98;59.40;99872.94;8395690;28;20051;-55
2022/07/25 06:57:31;;;;;;;6.43;5.63;;;;;;;28.20;58.98;99854.97;8412255;28;20047;-53
2022/07/25 07:01:31;;;;;;;6.28;5.38;;;;;;;28.22;58.97;99854.72;8424113;28;20412;-52
2022/07/25 07:05:35;;;;;;;8.75;5.75;;;;;;;28.34;57.83;99856.16;8423739;28;20044;-54
2022/07/25 07:09:35;;;;;;;6.55;5.38;;;;;;;28.71;56.85;99839.34;8423872;28;20434;-52
2022/07/25 07:13:36;;;;;;;5.75;5.03;;;;;;;28.85;57.51;99846.06;8416018;28;20032;-54
2022/07/25 07:17:37;;;;;;;8.10;5.57;;;;;;;28.96;56.10;99839.38;8373656;28;20044;-51
2022/07/25 07:21:37;;;;;;;5.72;4.80;;;;;;;28.95;56.80;99842.44;8384054;28;20057;-55
2022/07/25 07:25:38;;;;;;;6.85;5.30;;;;;;;28.91;56.61;99833.81;8378248;28;20040;-51
2022/07/25 07:29:38;;;;;;;7.13;5.43;;;;;;;29.15;56.49;99834.94;8383755;28;20041;-51
2022/07/25 07:33:39;;;;;;;6.38;5.53;;;;;;;29.15;56.41;99834.94;8382218;28;20056;-53
2022/07/25 07:37:39;;;;;;;10.50;5.93;;;;;;;29.13;56.33;99831.63;8380644;28;20114;-54
2022/07/25 07:41:40;;;;;;;7.13;5.13;;;;;;;29.16;56.15;99836.66;8380969;28;20433;-55
2022/07/25 07:45:41;;;;;;;8.80;5.72;;;;;;;29.34;55.44;99835.25;8391218;28;20032;-55
2022/07/25 07:49:41;;;;;;;8.18;5.47;;;;;;;29.28;56.98;99840.00;8387316;28;21393;-52
2022/07/25 07:58:02;;;;;;;6.75;5.65;;;;;;;29.45;55.30;99823.81;8400378;28;20504;-53
2022/07/25 08:02:03;;;;;;;9.45;6.20;;;;;;;29.28;55.71;99823.28;8385300;28;20045;-53
2022/07/25 08:06:03;;;;;;;6.18;5.40;;;;;;;29.20;55.96;99832.19;8388305;28;20037;-52
2022/07/25 08:10:04;;;;;;;15.88;6.57;;;;;;;29.33;56.58;99837.19;8392348;28;20055;-50
2022/07/25 08:14:05;;;;;;;13.38;5.72;;;;;;;29.13;56.81;99841.94;8389565;28;20048;-54
2022/07/25 08:18:06;;;;;;;21.85;7.22;;;;;;;29.03;58.02;99845.50;8386655;28;20469;-53
2022/07/25 08:22:06;;;;;;;12.10;6.68;;;;;;;28.95;57.79;99848.84;8387693;28;20040;-53
2022/07/25 08:26:07;;;;;;;16.75;6.47;;;;;;;29.08;57.78;99844.69;8394166;28;20060;-54
2022/07/25 08:30:08;;;;;;;16.67;5.53;;;;;;;28.90;59.15;99848.81;8395089;28;20032;-51
2022/07/25 08:34:09;;;;;;;13.73;6.00;;;;;;;28.53;58.65;99853.75;8385032;28;20496;-53
2022/07/25 08:38:10;;;;;;;17.80;5.93;;;;;;;28.32;59.00;99855.59;8383956;28;20466;-53
2022/07/25 08:42:10;;;;;;;31.35;7.30;;;;;;;28.52;60.14;99858.47;8388250;28;20695;-53
2022/07/25 08:46:11;;;;;;;13.90;5.95;;;;;;;28.57;59.09;99860.44;8386633;28;20064;-53
2022/07/25 08:50:14;;;;;;;16.02;6.10;;;;;;;28.58;57.41;99873.25;8384776;28;20072;-54
2022/07/25 08:54:15;;;;;;;12.07;5.88;;;;;;;28.82;56.45;99857.72;8389093;28;20064;-54
2022/07/25 08:58:17;;;;;;;15.40;6.35;;;;;;;28.89;56.70;99875.00;8402052;28;20127;-54
2022/07/25 09:02:17;;;;;;;8.90;5.80;;;;;;;29.48;57.02;99876.19;8403647;28;20036;-51
2022/07/25 09:06:19;;;;;;;6.73;5.27;;;;;;;29.91;55.64;99878.38;8372082;28;20032;-55
2022/07/25 09:10:25;;;;;;;9.80;6.03;;;;;;;30.17;55.53;99888.38;8380404;28;21050;-54
2022/07/25 09:14:28;;;;;;;15.80;6.35;;;;;;;29.82;54.60;99887.63;8371633;28;20117;-53
2022/07/25 09:19:05;;;;;;;8.37;5.70;;;;;;;29.90;54.87;99887.03;8386981;28;20404;-55
2022/07/25 09:23:06;;;;;;;10.90;5.72;;;;;;;30.64;54.43;99876.75;8388677;28;20044;-55
2022/07/25 09:27:09;;;;;;;13.05;6.03;;;;;;;29.90;54.89;99876.72;8381939;28;20044;-53
2022/07/25 09:31:10;;;;;;;18.63;6.68;;;;;;;29.59;56.42;99891.78;8394296;28;20041;-54
2022/07/25 09:35:11;;;;;;;17.90;5.85;;;;;;;29.33;57.18;99906.81;8390757;28;20032;-54
2022/07/25 09:39:11;;;;;;;10.15;5.28;;;;;;;28.74;58.52;99900.00;8392801;28;20048;-53
2022/07/25 09:43:12;;;;;;;13.83;6.37;;;;;;;28.47;59.23;99924.38;8386870;28;20086;-53
2022/07/25 09:47:14;;;;;;;18.13;6.20;;;;;;;28.22;59.66;99935.34;8385929;28;20267;-54
2022/07/25 09:51:14;;;;;;;9.70;5.63;;;;;;;27.86;60.13;99936.22;8382432;28;20059;-52
2022/07/25 09:55:15;;;;;;;12.82;6.38;;;;;;;27.61;61.10;99938.78;8386152;28;20040;-54
2022/07/25 09:59:15;;;;;;;12.75;6.80;;;;;;;27.38;61.88;99933.59;8384836;28;20044;-53
2022/07/25 10:07:44;;;;;;;18.25;5.90;;;;;;;26.90;66.66;99928.06;8287246;28;20878;-53
2022/07/25 10:12:06;;;;;;;15.57;6.22;;;;;;;26.87;64.48;99925.81;8278078;28;20034;-55
2022/07/25 10:16:15;;;;;;;8.68;5.53;;;;;;;26.71;64.29;99917.31;8282427;28;20129;-54
2022/07/25 10:20:27;;;;;;;10.43;5.97;;;;;;;26.63;65.78;99880.88;8281237;28;20045;-52
2022/07/25 10:24:37;;;;;;;17.05;5.47;;;;;;;26.48;69.62;99903.69;8276727;28;20038;-53
2022/07/25 10:28:46;;;;;;;9.68;5.88;;;;;;;27.32;68.98;99912.44;8277642;28;20068;-53
2022/07/25 10:32:55;;;;;;;13.98;5.40;;;;;;;29.64;61.71;99916.88;8280060;28;20560;-51
2022/07/25 10:36:56;;;;;;;10.27;5.55;;;;;;;29.54;58.33;99919.66;8279818;28;20120;-52
2022/07/25 10:41:01;;;;;;;12.65;5.07;;;;;;;28.95;59.92;99918.44;8280156;28;20086;-52
2022/07/25 10:45:04;;;;;;;13.45;5.15;;;;;;;29.57;56.98;99924.66;8276465;28;20098;-54
2022/07/25 10:49:07;;;;;;;6.90;4.47;;;;;;;29.77;54.97;99929.44;8277935;28;22235;-51
2022/07/25 10:53:08;;;;;;;7.50;4.47;;;;;;;30.89;53.10;99935.28;8281121;28;20045;-55
2022/07/25 10:57:14;;;;;;;9.70;4.65;;;;;;;30.13;54.37;99937.44;8278601;28;20034;-55
2022/07/25 11:01:32;;;;;;;9.07;4.40;;;;;;;28.97;56.20;99932.91;8278754;28;20088;-54
2022/07/25 11:05:44;;;;;;;6.80;3.72;;;;;;;29.49;54.16;99924.41;8275517;28;20122;-54
2022/07/25 11:09:55;;;;;;;7.65;4.15;;;;;;;29.35;54.40;99935.25;8269652;28;20050;-50
2022/07/25 11:13:56;;;;;;;5.93;3.92;;;;;;;28.97;54.18;99938.47;8276887;28;20125;-54
2022/07/25 11:17:57;;;;;;;6.93;3.55;;;;;;;28.56;55.34;99931.09;8262833;28;20089;-54
2022/07/25 11:21:59;;;;;;;10.45;3.67;;;;;;;29.00;55.69;99932.34;8258118;28;20042;-54
2022/07/25 11:26:06;;;;;;;5.20;3.08;;;;;;;29.54;53.43;99928.00;8257585;28;20037;-53
2022/07/25 11:34:23;;;;;;;6.38;3.30;;;;;;;29.91;52.57;99923.00;8392430;27;21059;-54
2022/07/25 11:38:24;;;;;;;8.03;3.10;;;;;;;30.88;49.78;99925.22;8383800;28;20101;-53
2022/07/25 11:42:26;;;;;;;5.40;3.38;;;;;;;32.32;48.25;99932.75;8392300;28;20305;-53
2022/07/25 11:46:27;;;;;;;6.90;3.05;;;;;;;32.73;46.96;99945.16;8392377;28;20496;-54
2022/07/25 11:50:29;;;;;;;4.63;3.05;;;;;;;33.72;45.11;99944.00;8381835;28;20470;-54
2022/07/25 11:54:30;;;;;;;5.43;3.03;;;;;;;34.39;45.60;99945.38;8362580;28;20072;-55
2022/07/25 11:58:30;;;;;;;8.13;3.38;;;;;;;33.67;45.80;99944.94;8382990;28;20040;-55
2022/07/25 12:02:35;;;;;;;6.05;3.85;;;;;;;33.15;47.11;99947.97;8382653;28;20118;-55
2022/07/25 12:06:35;;;;;;;8.70;3.75;;;;;;;32.26;48.54;99939.53;8387940;28;20033;-55
2022/07/25 12:10:37;;;;;;;4.40;3.13;;;;;;;33.05;48.43;99936.09;8392521;28;20051;-52
2022/07/25 12:14:42;;;;;;;4.95;3.45;;;;;;;32.27;49.95;99945.97;8403274;28;20040;-54
2022/07/25 12:18:43;;;;;;;8.15;3.50;;;;;;;31.92;50.64;99944.34;8387244;28;20036;-55
2022/07/25 12:22:43;;;;;;;9.73;4.38;;;;;;;31.46;52.18;99948.63;8388932;28;20043;-53
2022/07/25 12:26:44;;;;;;;7.30;3.20;;;;;;;31.33;51.53;99952.09;8381616;28;20048;-51
2022/07/25 12:30:46;;;;;;;10.70;3.15;;;;;;;31.20;52.38;99944.31;8368924;28;20457;-54
2022/07/25 12:34:46;;;;;;;5.78;3.22;;;;;;;31.41;52.32;99948.69;8378317;28;20040;-54
2022/07/25 12:38:46;;;;;;;6.53;3.10;;;;;;;31.63;52.32;99951.88;8378833;28;20515;-54
2022/07/25 12:42:48;;;;;;;7.23;2.63;;;;;;;31.36;51.78;99952.34;8383298;28;20052;-51
2022/07/25 12:46:48;;;;;;;5.35;3.10;;;;;;;30.79;53.23;99945.69;8362681;28;20295;-51
2022/07/25 12:50:49;;;;;;;12.20;3.20;;;;;;;30.33;54.19;99943.03;8346177;22;20056;-88
2022/07/25 12:54:49;;;;;;;4.70;2.58;;;;;;;30.41;54.79;99939.63;8280528;28;20045;-88
2022/07/25 12:58:50;;;;;;;7.45;2.60;;;;;;;30.47;54.68;99939.63;8288142;28;20088;-86
2022/07/25 13:02:54;;;;;;;5.32;2.70;;;;;;;30.22;55.42;99930.22;8281956;28;20305;-87
2022/07/25 13:06:55;;;;;;;10.20;2.40;;;;;;;30.26;54.72;99948.06;8301506;28;20048;-88
2022/07/25 13:10:56;;;;;;;10.77;2.25;;;;;;;30.51;55.18;99944.34;8292220;28;20468;-87
2022/07/25 13:14:57;;;;;;;9.43;2.13;;;;;;;30.19;54.84;99936.34;8302216;28;20038;-85
2022/07/25 13:18:57;;;;;;;7.30;2.30;;;;;;;30.46;54.96;99941.56;8295981;28;20128;-86
2022/07/25 13:22:58;;;;;;;21.80;4.40;;;;;;;30.74;53.44;99909.41;8302608;28;20230;-86
2022/07/25 13:27:02;;;;;;;8.60;2.55;;;;;;;30.56;53.94;99907.22;8289866;28;20268;-87
2022/07/25 13:31:05;;;;;;;10.43;2.47;;;;;;;30.27;55.08;99932.16;8306215;28;20510;-85
2022/07/25 13:35:06;;;;;;;14.20;3.03;;;;;;;30.36;55.14;99953.63;8305893;28;20137;-85
2022/07/25 13:39:07;;;;;;;19.85;5.00;;;;;;;30.00;54.36;99918.53;8288903;28;20272;-86
2022/07/25 13:43:09;;;;;;;9.27;2.40;;;;;;;30.00;54.94;99938.03;8297880;28;20508;-86
2022/07/25 13:47:10;;;;;;;13.07;1.67;;;;;;;29.76;55.29;99942.53;8300512;28;20073;-87
2022/07/25 13:51:11;;;;;;;9.43;2.08;;;;;;;29.57;56.26;99966.47;8282658;28;20072;-88
2022/07/25 13:55:11;;;;;;;6.63;1.75;;;;;;;29.46;56.43;99958.38;8281021;28;20058;-89
2022/07/25 13:59:12;;;;;;;7.68;2.30;;;;;;;29.61;55.97;99975.13;8297392;28;20041;-88
2022/07/25 14:03:15;;;;;;;5.93;1.77;;;;;;;29.48;55.79;99959.78;8278726;28;20147;-88
2022/07/25 14:07:16;;;;;;;4.90;1.83;;;;;;;29.48;54.91;99984.84;8275788;28;20048;-88
2022/07/25 14:11:16;;;;;;;8.38;2.20;;;;;;;29.31;54.30;99942.50;8275876;28;20041;-88
2022/07/25 14:15:18;;;;;;;4.55;1.98;;;;;;;29.36;54.27;99987.06;8238823;28;20381;-88
2022/07/25 14:19:19;;;;;;;3.78;1.80;;;;;;;29.29;54.22;99985.63;8287545;28;20048;-88
2022/07/25 14:23:19;;;;;;;5.65;1.88;;;;;;;29.19;55.42;99986.47;8281223;28;20413;-89
2022/07/25 14:27:20;;;;;;;2.63;1.65;;;;;;;29.10;56.03;99982.56;8277934;28;20116;-88
2022/07/25 14:31:23;;;;;;;8.88;2.10;;;;;;;28.72;56.48;99957.88;8310915;28;20029;-88
2022/07/25 14:35:29;;;;;;;4.88;1.70;;;;;;;28.58;56.57;99973.41;8280614;28;20088;-88
2022/07/25 14:39:36;;;;;;;5.00;2.08;;;;;;;28.07;57.05;99935.25;8314407;28;20052;-88
2022/07/25 14:43:37;;;;;;;5.18;1.95;;;;;;;27.98;57.05;99956.31;8289139;28;20499;-88
2022/07/25 14:47:41;;;;;;;2.45;1.55;;;;;;;27.99;57.65;99991.38;8311909;28;20132;-89
2022/07/25 14:51:47;;;;;;;9.52;1.70;;;;;;;27.78;59.10;99984.75;8281302;28;20037;-88
2022/07/25 14:55:47;;;;;;;8.15;2.25;;;;;;;27.53;60.58;100026.22;8285125;28;20056;-87
2022/07/25 14:59:48;;;;;;;9.20;2.13;;;;;;;27.37;61.26;100042.97;8278988;28;20049;-87
2022/07/25 15:03:51;;;;;;;11.18;2.33;;;;;;;27.09;61.85;100057.06;8303883;28;20036;-88
2022/07/25 15:07:52;;;;;;;14.10;2.45;;;;;;;26.76;62.37;100027.50;8288242;28;20428;-88
2022/07/25 15:11:52;;;;;;;13.93;2.42;;;;;;;26.90;62.52;100070.44;8320849;28;20346;-88
2022/07/25 15:15:53;;;;;;;9.30;2.45;;;;;;;26.76;62.84;100074.66;8288113;28;20037;-88
2022/07/25 15:19:56;;;;;;;10.35;2.20;;;;;;;26.48;63.27;100061.75;8284358;28;20037;-88
2022/07/25 15:23:58;;;;;;;6.55;2.20;;;;;;;26.52;63.06;100062.94;8296131;28;20041;-88
2022/07/25 15:27:59;;;;;;;9.02;2.22;;;;;;;26.51;63.33;100066.81;8310546;28;20506;-88
2022/07/25 15:32:02;;;;;;;9.88;2.13;;;;;;;26.49;63.90;100048.72;8289290;28;20053;-88
2022/07/25 15:36:03;;;;;;;13.13;2.45;;;;;;;26.46;63.88;100085.28;8296512;28;20367;-88
2022/07/25 15:40:04;;;;;;;10.10;2.00;;;;;;;26.14;63.96;100049.00;8289286;28;20490;-88
2022/07/25 15:44:05;;;;;;;13.82;2.20;;;;;;;26.04;63.70;100051.63;8282792;28;20406;-88
2022/07/25 15:48:08;;;;;;;9.80;2.00;;;;;;;26.39;63.69;100062.44;8288664;28;20049;-88
2022/07/25 15:52:08;;;;;;;7.00;2.03;;;;;;;26.31;62.42;100047.06;8275710;28;20044;-87
2022/07/25 15:56:09;;;;;;;8.93;2.35;;;;;;;26.45;62.56;100045.63;8303935;28;20128;-88
2022/07/25 16:00:10;;;;;;;5.25;1.85;;;;;;;26.68;62.34;100045.44;8286998;28;20163;-88
2022/07/25 16:04:11;;;;;;;4.80;2.33;;;;;;;26.86;61.73;100046.22;8288001;28;20083;-88
2022/07/25 16:08:14;;;;;;;5.95;1.70;;;;;;;27.00;60.75;100053.06;8269211;28;20034;-88
2022/07/25 16:12:14;;;;;;;7.17;2.10;;;;;;;27.13;59.81;100041.53;8295070;28;20504;-88
2022/07/25 16:16:15;;;;;;;4.05;1.75;;;;;;;27.19;56.88;100035.81;8286958;28;20057;-88
2022/07/25 16:20:15;;;;;;;6.65;1.75;;;;;;;27.18;56.86;100027.72;8300054;28;20042;-88
2022/07/25 16:24:16;;;;;;;4.20;1.70;;;;;;;27.03;57.18;100052.53;8294021;28;20069;-88
2022/07/25 16:28:16;;;;;;;9.23;1.90;;;;;;;26.99;57.96;100059.72;8300193;28;20034;-88
2022/07/25 16:32:17;;;;;;;5.55;1.75;;;;;;;26.81;57.78;100061.69;8300233;28;20046;-88
2022/07/25 16:36:18;;;;;;;10.85;2.00;;;;;;;27.02;57.62;100067.53;8306924;28;20053;-88
2022/07/25 16:40:18;;;;;;;5.80;2.10;;;;;;;26.90;58.05;100069.56;8299417;28;20522;-88
2022/07/25 16:44:19;;;;;;;3.42;1.65;;;;;;;26.67;58.20;100038.22;8286873;28;20049;-88
2022/07/25 16:48:20;;;;;;;4.18;1.60;;;;;;;26.71;57.82;100067.09;8291553;28;20041;-88
2022/07/25 16:52:21;;;;;;;5.28;1.83;;;;;;;26.48;58.21;100067.31;8288263;28;20694;-88
2022/07/25 16:56:37;;;;;;;9.25;2.45;;;;;;;26.26;58.37;100052.53;8296517;28;20116;-88
2022/07/25 17:00:41;;;;;;;3.85;1.60;;;;;;;26.21;58.45;100066.31;8314298;28;20037;-87
2022/07/25 17:04:41;;;;;;;4.38;1.70;;;;;;;26.43;59.24;100092.19;8304834;28;20071;-88
2022/07/25 17:08:42;;;;;;;7.30;1.80;;;;;;;26.36;58.67;100102.63;8276394;28;20063;-87
2022/07/25 17:12:42;;;;;;;8.00;2.22;;;;;;;26.26;59.18;100077.47;8317052;28;20091;-87
2022/07/25 17:16:43;;;;;;;10.52;2.72;;;;;;;26.32;59.45;100095.88;8310528;28;20029;-87
2022/07/25 17:20:44;;;;;;;3.60;2.15;;;;;;;26.23;58.95;100102.94;8310442;28;20048;-87
2022/07/25 17:24:44;;;;;;;6.15;1.80;;;;;;;26.20;59.21;100108.97;8315759;28;20026;-88
2022/07/25 17:28:52;;;;;;;6.97;2.05;;;;;;;26.11;59.41;100104.97;8309398;28;20485;-87
2022/07/25 17:32:52;;;;;;;7.72;2.15;;;;;;;26.03;59.66;100101.75;8298189;28;20041;-87
2022/07/25 17:36:54;;;;;;;6.30;2.28;;;;;;;26.04;59.57;100111.78;8315277;28;20041;-87
2022/07/25 17:40:54;;;;;;;10.27;2.35;;;;;;;26.10;59.61;100108.81;8289758;28;20087;-85
2022/07/25 17:44:54;;;;;;;8.30;2.00;;;;;;;26.00;59.50;100086.47;8298181;28;20075;-87
2022/07/25 17:48:55;;;;;;;14.38;2.28;;;;;;;26.22;58.86;100101.25;8293122;28;20096;-86
2022/07/25 17:52:58;;;;;;;7.30;2.13;;;;;;;26.43;58.66;100111.59;8307329;28;20444;-87
2022/07/25 17:56:59;;;;;;;7.00;2.07;;;;;;;26.32;58.12;100090.31;8305230;28;20045;-86
2022/07/25 18:00:59;;;;;;;7.60;1.90;;;;;;;26.01;58.39;100085.38;8280307;28;20065;-87
2022/07/25 18:05:05;;;;;;;6.35;1.60;;;;;;;25.88;59.03;100094.00;8277337;28;20038;-87
2022/07/25 18:09:07;;;;;;;6.93;1.95;;;;;;;25.89;58.39;100119.78;8308232;28;20557;-87
2022/07/25 18:13:07;;;;;;;8.40;1.70;;;;;;;25.82;58.93;100127.38;8303848;28;20103;-87
2022/07/25 18:17:08;;;;;;;4.07;1.50;;;;;;;25.70;59.36;100102.53;8290959;28;20112;-87
2022/07/25 18:21:08;;;;;;;5.72;1.75;;;;;;;25.91;58.80;100121.19;8309089;28;20041;-87
2022/07/25 18:25:11;;;;;;;9.52;1.52;;;;;;;25.77;57.94;100105.97;8293214;28;20060;-87
2022/07/25 18:29:11;;;;;;;3.05;1.08;;;;;;;25.80;57.63;100129.59;8305455;28;20406;-87
2022/07/25 18:33:17;;;;;;;9.63;1.13;;;;;;;25.72;56.93;100116.97;8276772;28;20044;-87
2022/07/25 18:37:18;;;;;;;11.25;1.35;;;;;;;25.69;56.42;100123.00;8305831;28;20037;-86
2022/07/25 18:41:19;;;;;;;9.93;1.50;;;;;;;25.59;56.22;100125.59;8291634;28;20494;-87
2022/07/25 18:45:20;;;;;;;3.47;1.13;;;;;;;25.30;57.50;100107.25;8313865;28;20049;-87
2022/07/25 18:49:21;;;;;;;5.00;0.98;;;;;;;25.34;57.13;100149.97;8288687;28;20037;-86
2022/07/25 18:53:22;;;;;;;9.70;1.40;;;;;;;25.17;57.38;100146.28;8301518;28;20124;-87
2022/07/25 18:57:22;;;;;;;6.57;1.30;;;;;;;24.99;57.97;100146.41;8281582;28;20175;-87